Observations for CRANFIELD, United Kingdom (EGTC)

EGTC 231050Z 21011KT 9999 BKN010 15/13 Q1016
EGTC 231020Z 21013KT 9999 BKN010 14/13 Q1016
EGTC 230950Z 21013KT 9999 BKN011 BKN033 14/13 Q1016 
EGTC 230920Z 21013KT 9999 BKN011 BKN032 13/12 Q1016 
EGTC 230850Z 21010KT 9999 BKN010 13/12 Q1016
EGTC 230820Z 21010KT 9999 BKN009 12/11 Q1016
EGTC 230750Z 21008KT 9999 FEW020 11/10 Q1016
EGTC 230720Z 21007KT 9999 FEW038 10/10 Q1016
EGTC 230650Z 22007KT CAVOK 10/10 Q1016  
EGTC 230620Z 22009KT CAVOK 10/10 Q1016  
EGTC 221550Z 26013G24KT 9999 FEW030 13/08 Q1013 
EGTC 221520Z 27011KT 240V300 9999 FEW029 12/07 Q1013
EGTC 221450Z 28015KT 240V320 9999 FEW031 13/07 Q1013
EGTC 221420Z 27013KT 9999 FEW046 13/06 Q1013
EGTC 221350Z 28014G25KT 250V320 9999 FEW046 13/05 Q1013 
EGTC 221320Z 28016KT 250V320 9999 SCT048 13/05 Q1012
EGTC 221250Z 28015G28KT 9999 SCT041 12/05 Q1012 
EGTC 221220Z 27016KT 240V300 9999 SCT045 12/05 Q1012
EGTC 221120Z 27020G32KT 9999 FEW036 12/05 Q1011 
EGTC 221050Z 27016G26KT 9999 FEW040 12/05 Q1011